createdAt,value
2022-08-30T00:00:01.071Z,11.07
2022-08-30T00:02:29.435Z,9.60
2022-08-30T00:05:01.661Z,10.85
2022-08-30T00:07:30.090Z,10.45
2022-08-30T00:09:57.983Z,10.85
2022-08-30T00:12:26.751Z,11.25
2022-08-30T00:14:54.722Z,11.70
2022-08-30T00:17:26.721Z,12.18
2022-08-30T00:19:56.196Z,11.68
2022-08-30T00:22:24.182Z,11.40
2022-08-30T00:24:52.179Z,11.43
2022-08-30T00:27:20.119Z,11.02
2022-08-30T00:29:48.166Z,11.10
2022-08-30T00:32:16.583Z,11.15
2022-08-30T00:34:44.647Z,11.57
2022-08-30T00:37:13.643Z,11.85
2022-08-30T00:39:41.716Z,11.23
2022-08-30T00:42:10.678Z,11.05
2022-08-30T00:44:40.592Z,11.00
2022-08-30T00:47:09.030Z,11.75
2022-08-30T00:49:37.140Z,11.05
2022-08-30T00:52:07.887Z,10.32
2022-08-30T00:54:37.061Z,11.65
2022-08-30T00:57:05.168Z,11.65
2022-08-30T00:59:33.212Z,11.55
2022-08-30T01:02:02.166Z,12.10
2022-08-30T01:04:31.145Z,11.02
2022-08-30T01:07:00.511Z,11.80
2022-08-30T01:09:30.238Z,10.77
2022-08-30T01:11:58.490Z,11.63
2022-08-30T01:14:27.839Z,10.75
2022-08-30T01:16:56.564Z,10.82
2022-08-30T01:19:49.890Z,10.63
2022-08-30T01:22:42.714Z,12.20
2022-08-30T01:25:13.113Z,10.88
2022-08-30T01:28:03.726Z,11.60
2022-08-30T01:30:31.783Z,10.63
2022-08-30T01:33:03.131Z,11.35
2022-08-30T01:35:44.408Z,10.82
2022-08-30T01:38:12.979Z,11.32
2022-08-30T01:40:41.239Z,11.65
2022-08-30T01:43:12.013Z,11.68
2022-08-30T01:45:40.774Z,12.35
2022-08-30T01:48:13.067Z,11.15
2022-08-30T01:50:41.728Z,11.82
2022-08-30T01:53:13.326Z,13.02
2022-08-30T01:55:41.911Z,12.05
2022-08-30T01:58:09.808Z,12.15
2022-08-30T02:00:39.606Z,11.98
2022-08-30T02:03:08.386Z,12.02
2022-08-30T02:05:36.580Z,12.60
2022-08-30T02:08:06.037Z,11.40
2022-08-30T02:10:35.333Z,11.93
2022-08-30T02:13:04.974Z,9.90
2022-08-30T02:15:41.398Z,9.25
2022-08-30T02:18:10.945Z,6.93
2022-08-30T02:20:40.072Z,8.45
2022-08-30T02:23:08.401Z,8.40
2022-08-30T02:25:37.527Z,6.78
2022-08-30T02:28:05.911Z,8.98
2022-08-30T02:30:34.870Z,6.78
2022-08-30T02:33:02.719Z,6.18
2022-08-30T02:35:31.330Z,7.65
2022-08-30T02:37:59.971Z,7.03
2022-08-30T02:40:28.683Z,7.60
2022-08-30T02:42:57.198Z,6.65
2022-08-30T02:45:25.589Z,9.43
2022-08-30T02:47:54.102Z,7.15
2022-08-30T02:50:22.024Z,6.85
2022-08-30T02:52:49.806Z,7.43
2022-08-30T02:55:18.316Z,6.65
2022-08-30T02:57:49.536Z,6.80
2022-08-30T03:00:19.862Z,7.78
2022-08-30T03:02:48.202Z,6.53
2022-08-30T03:05:16.890Z,8.52
2022-08-30T03:07:47.802Z,8.50
2022-08-30T03:10:16.483Z,8.07
2022-08-30T03:12:44.471Z,6.53
2022-08-30T03:15:13.410Z,7.30
2022-08-30T03:17:42.336Z,6.55
2022-08-30T03:20:35.579Z,6.32
2022-08-30T03:23:03.521Z,7.25
2022-08-30T03:25:31.676Z,6.72
2022-08-30T03:28:00.082Z,6.40
2022-08-30T03:30:28.446Z,7.53
2022-08-30T03:32:59.160Z,7.05
2022-08-30T03:35:28.518Z,8.18
2022-08-30T03:38:01.514Z,15.45
2022-08-30T03:40:29.784Z,29.95
2022-08-30T03:42:57.985Z,24.70
2022-08-30T03:45:25.988Z,23.08
2022-08-30T03:47:54.177Z,20.30
2022-08-30T03:50:22.320Z,20.63
2022-08-30T03:52:50.896Z,17.08
2022-08-30T03:55:19.839Z,17.20
2022-08-30T03:57:47.693Z,16.30
2022-08-30T04:00:16.351Z,14.82
2022-08-30T04:02:45.513Z,14.52
2022-08-30T04:05:14.152Z,14.70
2022-08-30T04:07:47.788Z,13.73
2022-08-30T04:10:15.604Z,13.70
2022-08-30T04:12:47.533Z,14.65
2022-08-30T04:15:18.667Z,12.52
2022-08-30T04:17:47.247Z,11.38
2022-08-30T04:20:15.313Z,10.90
2022-08-30T04:22:45.245Z,10.13
2022-08-30T04:25:15.613Z,11.15
2022-08-30T04:27:48.149Z,10.57
2022-08-30T04:30:16.168Z,9.25
2022-08-30T04:32:44.617Z,10.43
2022-08-30T04:35:13.053Z,11.13
2022-08-30T04:37:40.906Z,10.77
2022-08-30T04:40:09.845Z,9.48
2022-08-30T04:42:46.061Z,10.82
2022-08-30T04:45:16.009Z,10.38
2022-08-30T04:47:44.805Z,10.52
2022-08-30T04:50:16.676Z,10.00
2022-08-30T04:52:48.926Z,9.98
2022-08-30T04:55:20.279Z,9.05
2022-08-30T04:57:50.731Z,8.38
2022-08-30T05:00:28.194Z,6.13
2022-08-30T05:02:56.794Z,7.07
2022-08-30T05:05:40.142Z,5.72
2022-08-30T05:08:13.930Z,6.25
2022-08-30T05:10:45.915Z,5.93
2022-08-30T05:13:14.927Z,5.50
2022-08-30T05:15:42.862Z,5.82
2022-08-30T05:18:14.156Z,5.07
2022-08-30T05:20:42.853Z,5.95
2022-08-30T05:23:16.065Z,5.82
2022-08-30T05:25:44.256Z,5.65
2022-08-30T05:28:12.381Z,7.10
2022-08-30T05:30:40.388Z,6.78
2022-08-30T05:33:08.412Z,6.05
2022-08-30T05:35:36.607Z,6.00
2022-08-30T05:38:05.268Z,7.03
2022-08-30T05:40:40.180Z,7.20
2022-08-30T05:43:11.382Z,7.18
2022-08-30T05:45:39.949Z,5.80
2022-08-30T05:48:09.010Z,6.15
2022-08-30T05:50:42.377Z,7.10
2022-08-30T05:53:10.997Z,6.25
2022-08-30T05:55:43.480Z,7.30
2022-08-30T05:58:12.442Z,5.70
2022-08-30T06:00:40.433Z,6.43
2022-08-30T06:03:12.188Z,5.63
2022-08-30T06:05:40.445Z,5.72
2022-08-30T06:08:11.867Z,6.15
2022-08-30T06:10:41.866Z,4.93
2022-08-30T06:13:13.032Z,4.65
2022-08-30T06:15:41.240Z,4.50
2022-08-30T06:18:28.569Z,4.30
2022-08-30T06:20:58.896Z,4.47
2022-08-30T06:23:29.365Z,4.25
2022-08-30T06:26:03.255Z,4.60
2022-08-30T06:28:32.365Z,3.90
2022-08-30T06:31:00.295Z,4.35
2022-08-30T06:33:29.150Z,4.22
2022-08-30T06:36:06.172Z,3.85
2022-08-30T06:38:35.333Z,4.45
2022-08-30T06:41:09.993Z,4.72
2022-08-30T06:43:37.999Z,4.93
2022-08-30T06:46:08.069Z,5.97
2022-08-30T06:48:36.939Z,3.50
2022-08-30T06:51:05.652Z,3.83
2022-08-30T06:53:36.155Z,4.10
2022-08-30T06:56:16.365Z,4.18
2022-08-30T06:58:45.869Z,4.20
2022-08-30T07:01:15.458Z,4.45
2022-08-30T07:03:46.457Z,3.78
2022-08-30T07:06:19.314Z,3.67
2022-08-30T07:08:47.466Z,3.33
2022-08-30T07:11:26.757Z,4.53
2022-08-30T07:13:57.878Z,4.05
2022-08-30T07:16:28.741Z,4.18
2022-08-30T07:18:58.947Z,3.22
2022-08-30T07:21:38.697Z,3.97
2022-08-30T07:24:08.784Z,3.95
2022-08-30T07:26:50.033Z,3.30
2022-08-30T07:29:25.676Z,3.55
2022-08-30T07:32:01.139Z,3.47
2022-08-30T07:34:29.162Z,4.07
2022-08-30T07:36:58.683Z,4.05
2022-08-30T07:39:27.565Z,4.10
2022-08-30T07:42:00.906Z,5.10
2022-08-30T07:44:32.620Z,3.90
2022-08-30T07:47:01.455Z,4.85
2022-08-30T07:49:30.013Z,4.43
2022-08-30T07:51:58.168Z,4.70
2022-08-30T07:54:26.136Z,4.95
2022-08-30T07:56:56.613Z,4.47
2022-08-30T07:59:25.442Z,4.55
2022-08-30T08:01:57.106Z,4.65
2022-08-30T08:04:25.015Z,4.03
2022-08-30T08:06:53.051Z,4.30
2022-08-30T08:09:21.026Z,4.20
2022-08-30T08:11:52.096Z,4.32
2022-08-30T08:14:44.168Z,3.92
2022-08-30T08:17:13.010Z,4.25
2022-08-30T08:19:41.287Z,4.32
2022-08-30T08:22:20.630Z,4.00
2022-08-30T08:24:51.054Z,4.25
2022-08-30T08:27:19.305Z,3.83
2022-08-30T08:29:47.283Z,3.67
2022-08-30T08:32:17.074Z,3.38
2022-08-30T08:34:45.160Z,2.70
2022-08-30T08:37:13.149Z,3.30
2022-08-30T08:39:42.388Z,3.10
2022-08-30T08:42:31.790Z,2.58
2022-08-30T08:45:19.705Z,2.22
2022-08-30T08:47:51.155Z,2.95
2022-08-30T08:50:20.996Z,2.65
2022-08-30T08:53:36.156Z,2.35
2022-08-30T08:56:15.231Z,2.80
2022-08-30T08:58:45.829Z,2.15
2022-08-30T09:01:15.494Z,2.85
2022-08-30T09:03:43.989Z,2.95
2022-08-30T09:06:16.570Z,2.65
2022-08-30T09:08:44.637Z,2.70
2022-08-30T09:11:20.870Z,2.13
2022-08-30T09:13:54.967Z,2.33
2022-08-30T09:16:57.640Z,2.40
2022-08-30T09:19:42.192Z,2.75
2022-08-30T09:22:32.600Z,2.58
2022-08-30T09:25:06.610Z,3.05
2022-08-30T09:27:45.036Z,2.33
2022-08-30T09:30:29.112Z,2.40
2022-08-30T09:33:05.739Z,2.70
2022-08-30T09:35:43.210Z,2.65
2022-08-30T09:38:29.664Z,2.90
2022-08-30T09:41:02.733Z,2.28
2022-08-30T09:43:34.603Z,2.42
2022-08-30T09:46:09.711Z,2.78
2022-08-30T09:48:44.458Z,2.35
2022-08-30T09:51:15.890Z,2.30
2022-08-30T09:54:07.176Z,2.40
2022-08-30T09:56:55.437Z,2.20
2022-08-30T09:59:40.754Z,2.67
2022-08-30T10:02:45.125Z,2.55
2022-08-30T10:05:20.346Z,2.10
2022-08-30T10:10:51.944Z,2.35
2022-08-30T10:13:49.278Z,3.10
2022-08-30T10:16:25.558Z,2.78
2022-08-30T10:19:36.727Z,2.47
2022-08-30T10:23:01.256Z,2.47
2022-08-30T10:25:44.208Z,2.55
2022-08-30T10:28:36.700Z,2.15
2022-08-30T10:31:13.307Z,2.53
2022-08-30T10:33:47.811Z,1.95
2022-08-30T10:36:16.087Z,2.30
2022-08-30T10:38:50.537Z,2.22
2022-08-30T10:41:35.886Z,2.15
2022-08-30T10:44:24.116Z,2.33
2022-08-30T10:47:11.050Z,2.45
2022-08-30T10:49:44.502Z,2.28
2022-08-30T10:52:12.642Z,2.58
2022-08-30T10:55:05.161Z,2.92
2022-08-30T10:57:37.120Z,2.55
2022-08-30T11:00:14.070Z,2.40
2022-08-30T11:03:02.564Z,2.97
2022-08-30T11:05:48.147Z,2.90
2022-08-30T11:08:33.266Z,2.45
2022-08-30T11:11:40.776Z,2.67
2022-08-30T11:14:10.828Z,2.33
2022-08-30T11:16:46.050Z,2.60
2022-08-30T11:19:20.589Z,3.00
2022-08-30T11:21:50.865Z,2.80
2022-08-30T11:24:23.156Z,2.65
2022-08-30T11:27:29.707Z,2.25
2022-08-30T11:29:59.558Z,2.55
2022-08-30T11:33:09.400Z,2.67
2022-08-30T11:35:48.207Z,2.35
2022-08-30T11:38:27.343Z,2.67
2022-08-30T11:40:55.358Z,2.70
2022-08-30T11:43:37.232Z,2.33
2022-08-30T11:46:17.647Z,2.63
2022-08-30T11:49:01.613Z,2.80
2022-08-30T11:51:44.506Z,3.33
2022-08-30T11:54:28.288Z,2.65
2022-08-30T11:57:03.385Z,2.97
2022-08-30T11:59:57.823Z,2.72
2022-08-30T12:03:08.112Z,3.15
2022-08-30T12:05:41.005Z,2.15
2022-08-30T12:08:24.256Z,2.72
2022-08-30T12:11:02.497Z,2.70
2022-08-30T12:13:37.208Z,2.55
2022-08-30T12:16:22.095Z,2.50
2022-08-30T12:19:05.046Z,2.83
2022-08-30T12:21:44.747Z,2.83
2022-08-30T12:24:26.358Z,2.17
2022-08-30T12:26:55.546Z,2.92
2022-08-30T12:29:28.737Z,2.72
2022-08-30T12:32:22.708Z,2.80
2022-08-30T12:34:56.930Z,2.25
2022-08-30T12:37:37.449Z,2.97
2022-08-30T12:40:09.142Z,2.17
2022-08-30T12:42:41.510Z,2.42
2022-08-30T12:45:15.853Z,2.28
2022-08-30T12:47:46.764Z,2.67
2022-08-30T12:50:17.421Z,2.80
2022-08-30T12:52:47.531Z,2.70
2022-08-30T12:55:19.261Z,2.90
2022-08-30T12:58:14.940Z,2.60
2022-08-30T13:00:44.607Z,2.58
2022-08-30T13:03:29.881Z,3.00
2022-08-30T13:06:02.757Z,2.30
2022-08-30T13:08:48.026Z,2.60
2022-08-30T13:11:48.451Z,2.28
2022-08-30T13:14:42.408Z,2.75
2022-08-30T13:17:24.972Z,2.47
2022-08-30T13:20:02.109Z,2.58
2022-08-30T13:22:41.902Z,2.00
2022-08-30T13:25:10.952Z,2.28
2022-08-30T13:27:40.036Z,2.45
2022-08-30T13:30:13.681Z,2.63
2022-08-30T13:32:43.126Z,2.47
2022-08-30T13:35:11.164Z,2.40
2022-08-30T13:37:49.359Z,2.78
2022-08-30T13:40:20.436Z,2.75
2022-08-30T13:42:49.151Z,2.80
2022-08-30T13:48:06.551Z,2.50
2022-08-30T13:50:34.778Z,2.45
2022-08-30T13:53:02.880Z,2.90
2022-08-30T13:55:31.203Z,2.90
2022-08-30T13:57:59.182Z,2.47
2022-08-30T14:00:30.433Z,2.50
2022-08-30T14:03:00.447Z,2.42
2022-08-30T14:11:18.603Z,2.92
2022-08-30T14:16:36.474Z,2.63
2022-08-30T14:19:05.638Z,2.97
2022-08-30T14:21:35.979Z,2.80
2022-08-30T14:24:07.790Z,3.13
2022-08-30T14:26:39.781Z,2.50
2022-08-30T14:29:09.472Z,2.55
2022-08-30T14:31:40.048Z,2.88
2022-08-30T14:34:09.450Z,2.72
2022-08-30T14:36:41.823Z,2.08
2022-08-30T14:39:12.246Z,3.00
2022-08-30T14:41:44.464Z,2.78
2022-08-30T14:44:14.641Z,3.10
2022-08-30T14:47:04.141Z,2.90
2022-08-30T14:49:32.386Z,2.60
2022-08-30T14:52:02.237Z,2.38
2022-08-30T14:54:30.943Z,2.85
2022-08-30T14:57:03.113Z,2.10
2022-08-30T14:59:34.086Z,2.90
2022-08-30T15:02:03.521Z,2.17
2022-08-30T15:04:32.679Z,2.70
2022-08-30T15:07:00.780Z,3.03
2022-08-30T15:09:29.631Z,3.08
2022-08-30T15:11:59.886Z,3.05
2022-08-30T15:14:28.856Z,2.97
2022-08-30T15:16:58.487Z,3.25
2022-08-30T15:19:27.065Z,3.00
2022-08-30T15:21:59.095Z,3.67
2022-08-30T15:24:29.475Z,3.60
2022-08-30T15:27:02.425Z,3.53
2022-08-30T15:29:54.296Z,3.35
2022-08-30T15:32:24.582Z,3.70
2022-08-30T15:34:55.746Z,3.38
2022-08-30T15:37:24.515Z,3.58
2022-08-30T15:39:53.401Z,3.03
2022-08-30T15:42:21.629Z,3.78
2022-08-30T15:44:55.741Z,2.83
2022-08-30T15:47:24.138Z,3.60
2022-08-30T15:49:59.825Z,4.00
2022-08-30T15:52:27.829Z,3.28
2022-08-30T15:54:58.238Z,3.33
2022-08-30T15:57:26.788Z,3.42
2022-08-30T15:59:55.240Z,3.22
2022-08-30T16:02:27.659Z,4.43
2022-08-30T16:04:56.687Z,3.22
2022-08-30T16:07:24.987Z,3.22
2022-08-30T16:09:54.236Z,3.20
2022-08-30T16:12:23.762Z,3.05
2022-08-30T16:14:52.252Z,2.95
2022-08-30T16:17:24.189Z,3.25
2022-08-30T16:19:54.665Z,3.25
2022-08-30T16:22:26.647Z,3.20
2022-08-30T16:24:54.608Z,3.40
2022-08-30T16:27:25.037Z,3.15
2022-08-30T16:29:53.462Z,3.15
2022-08-30T16:32:22.447Z,2.88
2022-08-30T16:34:52.172Z,3.08
2022-08-30T16:37:21.609Z,3.72
2022-08-30T16:39:49.735Z,3.38
2022-08-30T16:42:20.894Z,3.15
2022-08-30T16:44:51.281Z,3.33
2022-08-30T16:47:20.615Z,4.47
2022-08-30T16:49:49.000Z,2.75
2022-08-30T16:52:18.319Z,3.08
2022-08-30T16:54:52.211Z,3.58
2022-08-30T16:57:20.986Z,4.22
2022-08-30T16:59:50.913Z,3.35
2022-08-30T17:02:20.764Z,3.53
2022-08-30T17:04:53.230Z,4.88
2022-08-30T17:07:22.530Z,7.07
2022-08-30T17:09:51.767Z,4.43
2022-08-30T17:12:21.318Z,4.30
2022-08-30T17:14:49.756Z,5.75
2022-08-30T17:17:22.037Z,4.15
2022-08-30T17:19:52.458Z,4.60
2022-08-30T17:22:21.447Z,4.38
2022-08-30T17:24:49.979Z,4.13
2022-08-30T17:27:19.624Z,3.63
2022-08-30T17:29:48.029Z,3.97
2022-08-30T17:32:16.028Z,3.72
2022-08-30T17:34:44.967Z,4.05
2022-08-30T17:37:13.814Z,3.92
2022-08-30T17:39:42.142Z,3.60
2022-08-30T17:42:10.780Z,3.50
2022-08-30T17:44:42.275Z,3.13
2022-08-30T17:47:13.847Z,2.97
2022-08-30T17:49:42.049Z,3.22
2022-08-30T17:52:11.651Z,3.05
2022-08-30T17:54:41.065Z,3.00
2022-08-30T17:57:11.646Z,3.28
2022-08-30T17:59:47.792Z,4.13
2022-08-30T18:02:16.157Z,3.72
2022-08-30T18:04:58.041Z,3.65
2022-08-30T18:07:27.155Z,4.15
2022-08-30T18:09:55.870Z,4.50
2022-08-30T18:12:24.372Z,4.13
2022-08-30T18:14:54.957Z,4.88
2022-08-30T18:17:23.464Z,4.43
2022-08-30T18:19:52.412Z,4.22
2022-08-30T18:22:25.160Z,4.70
2022-08-30T18:25:00.305Z,4.50
2022-08-30T18:27:30.933Z,4.90
2022-08-30T18:29:59.063Z,5.05
2022-08-30T18:32:35.141Z,4.93
2022-08-30T18:35:06.499Z,5.70
2022-08-30T18:37:37.918Z,5.70
2022-08-30T18:40:09.727Z,5.57
2022-08-30T18:42:38.673Z,5.82
2022-08-30T18:45:11.509Z,5.10
2022-08-30T18:47:45.120Z,5.22
2022-08-30T18:50:13.258Z,5.72
2022-08-30T18:52:41.461Z,5.72
2022-08-30T18:55:13.099Z,5.38
2022-08-30T18:57:41.086Z,5.40
2022-08-30T19:00:12.041Z,5.20
2022-08-30T19:02:40.203Z,6.20
2022-08-30T19:05:12.487Z,6.32
2022-08-30T19:07:40.802Z,6.07
2022-08-30T19:10:12.315Z,5.70
2022-08-30T19:12:40.621Z,5.88
2022-08-30T19:15:11.052Z,6.43
2022-08-30T19:17:43.769Z,6.60
2022-08-30T19:20:13.719Z,7.07
2022-08-30T19:23:05.852Z,6.75
2022-08-30T19:25:29.996Z,6.47
2022-08-30T19:27:57.951Z,6.07
2022-08-30T19:30:29.931Z,6.68
2022-08-30T19:32:58.246Z,6.65
2022-08-30T19:35:27.066Z,6.50
2022-08-30T19:37:58.757Z,7.70
2022-08-30T19:40:26.799Z,6.75
2022-08-30T19:42:55.007Z,6.63
2022-08-30T19:45:23.400Z,6.82
2022-08-30T19:47:53.318Z,6.68
2022-08-30T19:50:22.187Z,6.65
2022-08-30T19:52:54.233Z,7.28
2022-08-30T19:55:28.568Z,7.05
2022-08-30T19:57:59.911Z,6.63
2022-08-30T20:00:31.317Z,5.75
2022-08-30T20:03:01.616Z,7.25
2022-08-30T20:05:30.799Z,6.82
2022-08-30T20:07:59.170Z,6.78
2022-08-30T20:10:27.183Z,7.00
2022-08-30T20:12:55.134Z,6.80
2022-08-30T20:15:23.399Z,7.07
2022-08-30T20:20:49.687Z,6.85
2022-08-30T20:23:19.762Z,7.70
2022-08-30T20:25:52.136Z,7.78
2022-08-30T20:28:21.204Z,8.85
2022-08-30T20:30:49.528Z,8.07
2022-08-30T20:33:18.497Z,7.63
2022-08-30T20:35:49.289Z,8.40
2022-08-30T20:38:21.853Z,8.57
2022-08-30T20:40:53.927Z,8.30
2022-08-30T20:43:23.190Z,8.25
2022-08-30T20:46:11.474Z,7.70
2022-08-30T20:48:40.267Z,7.43
2022-08-30T20:51:09.054Z,7.65
2022-08-30T20:53:37.368Z,7.97
2022-08-30T20:56:05.644Z,8.25
2022-08-30T20:58:33.515Z,8.82
2022-08-30T21:01:01.832Z,7.95
2022-08-30T21:03:30.108Z,8.13
2022-08-30T21:06:02.034Z,9.18
2022-08-30T21:08:30.734Z,8.50
2022-08-30T21:11:00.846Z,9.13
2022-08-30T21:13:57.544Z,7.97
2022-08-30T21:16:25.844Z,8.93
2022-08-30T21:18:54.448Z,9.05
2022-08-30T21:21:25.531Z,9.35
2022-08-30T21:23:54.777Z,9.52
2022-08-30T21:26:22.736Z,9.18
2022-08-30T21:28:51.904Z,8.70
2022-08-30T21:31:25.242Z,8.90
2022-08-30T21:33:53.865Z,8.63
2022-08-30T21:36:41.058Z,9.35
2022-08-30T21:39:09.512Z,10.63
2022-08-30T21:41:40.959Z,9.75
2022-08-30T21:44:11.152Z,9.02
2022-08-30T21:46:40.596Z,8.48
2022-08-30T21:49:09.960Z,9.45
2022-08-30T21:51:40.040Z,9.38
2022-08-30T21:54:09.792Z,8.63
2022-08-30T21:56:40.330Z,8.93
2022-08-30T21:59:09.339Z,8.20
2022-08-30T22:01:38.284Z,8.50
2022-08-30T22:04:08.544Z,8.65
2022-08-30T22:06:41.055Z,7.97
2022-08-30T22:09:10.655Z,7.05
2022-08-30T22:11:38.634Z,7.40
2022-08-30T22:14:07.020Z,7.78
2022-08-30T22:16:40.700Z,7.30
2022-08-30T22:19:09.054Z,7.50
2022-08-30T22:21:37.650Z,6.80
2022-08-30T22:24:08.987Z,7.85
2022-08-30T22:26:37.217Z,6.75
2022-08-30T22:29:06.361Z,6.97
2022-08-30T22:31:41.238Z,7.10
2022-08-30T22:34:13.376Z,7.55
2022-08-30T22:36:41.379Z,6.57
2022-08-30T22:39:10.553Z,6.57
2022-08-30T22:41:38.585Z,6.93
2022-08-30T22:44:07.218Z,7.28
2022-08-30T22:46:35.941Z,7.57
2022-08-30T22:49:08.141Z,7.47
2022-08-30T22:51:36.614Z,6.47
2022-08-30T22:54:04.888Z,6.47
2022-08-30T22:56:35.675Z,6.68
2022-08-30T22:59:04.306Z,6.60
2022-08-30T23:01:39.095Z,6.95
2022-08-30T23:04:07.727Z,6.15
2022-08-30T23:06:36.437Z,6.78
2022-08-30T23:09:07.546Z,6.82
2022-08-30T23:11:35.887Z,5.55
2022-08-30T23:14:04.658Z,6.43
2022-08-30T23:16:33.141Z,5.80
2022-08-30T23:19:01.335Z,5.80
2022-08-30T23:21:29.993Z,5.32
2022-08-30T23:24:17.422Z,5.22
2022-08-30T23:27:04.534Z,5.88
2022-08-30T23:29:51.231Z,5.22
2022-08-30T23:32:37.912Z,5.53
2022-08-30T23:35:29.376Z,5.72
2022-08-30T23:38:18.475Z,5.13
2022-08-30T23:41:05.439Z,4.78
2022-08-30T23:43:51.857Z,5.25
2022-08-30T23:46:40.724Z,5.55
2022-08-30T23:49:27.229Z,5.57
2022-08-30T23:52:13.505Z,6.68
2022-08-30T23:55:00.153Z,5.65
2022-08-30T23:57:47.272Z,6.63
